sensor_id;sensor_type;location;lat;lon;timestamp;temperature;humidity
45044;DHT22;30784;48.490;9.688;2024-01-07T00:00:20;6.60;62.20
45044;DHT22;30784;48.490;9.688;2024-01-07T00:02:46;6.60;62.20
45044;DHT22;30784;48.490;9.688;2024-01-07T00:05:12;6.60;62.20
45044;DHT22;30784;48.490;9.688;2024-01-07T00:07:37;6.60;62.60
45044;DHT22;30784;48.490;9.688;2024-01-07T00:10:03;6.60;62.20
45044;DHT22;30784;48.490;9.688;2024-01-07T00:12:29;6.50;62.20
45044;DHT22;30784;48.490;9.688;2024-01-07T00:14:54;6.60;62.20
45044;DHT22;30784;48.490;9.688;2024-01-07T00:17:20;6.50;62.30
45044;DHT22;30784;48.490;9.688;2024-01-07T00:19:45;6.50;62.30
45044;DHT22;30784;48.490;9.688;2024-01-07T00:22:11;6.50;62.40
45044;DHT22;30784;48.490;9.688;2024-01-07T00:24:36;6.50;62.40
45044;DHT22;30784;48.490;9.688;2024-01-07T00:27:02;6.50;62.30
45044;DHT22;30784;48.490;9.688;2024-01-07T00:29:28;6.60;62.30
45044;DHT22;30784;48.490;9.688;2024-01-07T00:31:53;6.50;62.40
45044;DHT22;30784;48.490;9.688;2024-01-07T00:34:19;6.50;62.40
45044;DHT22;30784;48.490;9.688;2024-01-07T00:36:44;6.50;62.40
45044;DHT22;30784;48.490;9.688;2024-01-07T00:39:10;6.50;62.40
45044;DHT22;30784;48.490;9.688;2024-01-07T00:41:35;6.50;62.40
45044;DHT22;30784;48.490;9.688;2024-01-07T00:44:01;6.50;62.40
45044;DHT22;30784;48.490;9.688;2024-01-07T00:46:27;6.50;62.40
45044;DHT22;30784;48.490;9.688;2024-01-07T00:48:52;6.50;62.40
45044;DHT22;30784;48.490;9.688;2024-01-07T00:51:18;6.50;62.40
45044;DHT22;30784;48.490;9.688;2024-01-07T00:53:43;6.50;62.30
45044;DHT22;30784;48.490;9.688;2024-01-07T00:56:09;6.50;62.40
45044;DHT22;30784;48.490;9.688;2024-01-07T00:58:36;6.50;62.50
45044;DHT22;30784;48.490;9.688;2024-01-07T01:01:01;6.50;62.40
45044;DHT22;30784;48.490;9.688;2024-01-07T01:03:27;6.50;62.50
45044;DHT22;30784;48.490;9.688;2024-01-07T01:05:53;6.50;62.50
45044;DHT22;30784;48.490;9.688;2024-01-07T01:08:18;6.50;62.60
45044;DHT22;30784;48.490;9.688;2024-01-07T01:10:44;6.40;62.60
45044;DHT22;30784;48.490;9.688;2024-01-07T01:13:09;6.40;62.60
45044;DHT22;30784;48.490;9.688;2024-01-07T01:15:35;6.40;62.60
45044;DHT22;30784;48.490;9.688;2024-01-07T01:18:01;6.40;62.80
45044;DHT22;30784;48.490;9.688;2024-01-07T01:20:26;6.40;62.70
45044;DHT22;30784;48.490;9.688;2024-01-07T01:22:52;6.40;62.80
45044;DHT22;30784;48.490;9.688;2024-01-07T01:25:17;6.40;62.80
45044;DHT22;30784;48.490;9.688;2024-01-07T01:27:43;6.40;62.80
45044;DHT22;30784;48.490;9.688;2024-01-07T01:30:10;6.40;62.70
45044;DHT22;30784;48.490;9.688;2024-01-07T01:32:36;6.40;62.80
45044;DHT22;30784;48.490;9.688;2024-01-07T01:35:01;6.40;62.80
45044;DHT22;30784;48.490;9.688;2024-01-07T01:37:27;6.40;62.80
45044;DHT22;30784;48.490;9.688;2024-01-07T01:39:53;6.40;62.80
45044;DHT22;30784;48.490;9.688;2024-01-07T01:42:18;6.30;62.90
45044;DHT22;30784;48.490;9.688;2024-01-07T01:44:44;6.40;63.00
45044;DHT22;30784;48.490;9.688;2024-01-07T01:47:10;6.30;62.90
45044;DHT22;30784;48.490;9.688;2024-01-07T01:49:36;6.30;62.90
45044;DHT22;30784;48.490;9.688;2024-01-07T01:52:04;6.30;62.90
45044;DHT22;30784;48.490;9.688;2024-01-07T01:54:29;6.30;62.90
45044;DHT22;30784;48.490;9.688;2024-01-07T01:56:55;6.30;62.90
45044;DHT22;30784;48.490;9.688;2024-01-07T01:59:21;6.30;62.90
45044;DHT22;30784;48.490;9.688;2024-01-07T02:01:47;6.30;63.50
45044;DHT22;30784;48.490;9.688;2024-01-07T02:04:14;6.30;62.90
45044;DHT22;30784;48.490;9.688;2024-01-07T02:06:40;6.30;62.90
45044;DHT22;30784;48.490;9.688;2024-01-07T02:09:06;6.30;63.00
45044;DHT22;30784;48.490;9.688;2024-01-07T02:11:31;6.30;63.00
45044;DHT22;30784;48.490;9.688;2024-01-07T02:13:57;6.30;63.00
45044;DHT22;30784;48.490;9.688;2024-01-07T02:16:22;6.30;63.00
45044;DHT22;30784;48.490;9.688;2024-01-07T02:18:48;6.30;63.00
45044;DHT22;30784;48.490;9.688;2024-01-07T02:21:14;6.30;63.00
45044;DHT22;30784;48.490;9.688;2024-01-07T02:23:40;6.30;63.00
45044;DHT22;30784;48.490;9.688;2024-01-07T02:26:05;6.20;63.00
45044;DHT22;30784;48.490;9.688;2024-01-07T02:28:32;6.30;63.10
45044;DHT22;30784;48.490;9.688;2024-01-07T02:30:58;6.30;63.10
45044;DHT22;30784;48.490;9.688;2024-01-07T02:33:23;6.30;63.00
45044;DHT22;30784;48.490;9.688;2024-01-07T02:35:49;6.30;63.10
45044;DHT22;30784;48.490;9.688;2024-01-07T02:38:15;6.30;63.00
45044;DHT22;30784;48.490;9.688;2024-01-07T02:40:40;6.30;63.00
45044;DHT22;30784;48.490;9.688;2024-01-07T02:43:06;6.30;63.00
45044;DHT22;30784;48.490;9.688;2024-01-07T02:45:31;6.30;63.00
45044;DHT22;30784;48.490;9.688;2024-01-07T02:47:57;6.30;63.00
45044;DHT22;30784;48.490;9.688;2024-01-07T02:50:22;6.20;63.00
45044;DHT22;30784;48.490;9.688;2024-01-07T02:52:48;6.30;63.00
45044;DHT22;30784;48.490;9.688;2024-01-07T02:55:14;6.20;62.90
45044;DHT22;30784;48.490;9.688;2024-01-07T02:57:39;6.20;63.00
45044;DHT22;30784;48.490;9.688;2024-01-07T03:00:05;6.20;63.00
45044;DHT22;30784;48.490;9.688;2024-01-07T03:02:31;6.20;63.00
45044;DHT22;30784;48.490;9.688;2024-01-07T03:04:57;6.20;63.00
45044;DHT22;30784;48.490;9.688;2024-01-07T03:07:22;6.20;63.00
45044;DHT22;30784;48.490;9.688;2024-01-07T03:09:49;6.20;63.00
45044;DHT22;30784;48.490;9.688;2024-01-07T03:12:17;6.20;63.00
45044;DHT22;30784;48.490;9.688;2024-01-07T03:14:43;6.20;63.00
45044;DHT22;30784;48.490;9.688;2024-01-07T03:17:12;6.20;63.00
45044;DHT22;30784;48.490;9.688;2024-01-07T03:19:38;6.20;63.00
45044;DHT22;30784;48.490;9.688;2024-01-07T03:22:04;6.20;63.00
45044;DHT22;30784;48.490;9.688;2024-01-07T03:24:32;6.20;62.90
45044;DHT22;30784;48.490;9.688;2024-01-07T03:26:57;6.20;63.00
45044;DHT22;30784;48.490;9.688;2024-01-07T03:29:23;6.20;63.00
45044;DHT22;30784;48.490;9.688;2024-01-07T03:31:49;6.20;63.00
45044;DHT22;30784;48.490;9.688;2024-01-07T03:34:16;6.20;63.10
45044;DHT22;30784;48.490;9.688;2024-01-07T03:36:41;6.20;63.10
45044;DHT22;30784;48.490;9.688;2024-01-07T03:39:07;6.20;63.10
45044;DHT22;30784;48.490;9.688;2024-01-07T03:41:33;6.10;63.00
45044;DHT22;30784;48.490;9.688;2024-01-07T03:43:59;6.10;63.10
45044;DHT22;30784;48.490;9.688;2024-01-07T03:46:24;6.10;63.10
45044;DHT22;30784;48.490;9.688;2024-01-07T03:48:50;6.10;63.10
45044;DHT22;30784;48.490;9.688;2024-01-07T03:51:16;6.10;63.00
45044;DHT22;30784;48.490;9.688;2024-01-07T03:53:41;6.10;63.10
45044;DHT22;30784;48.490;9.688;2024-01-07T03:56:07;6.10;63.10
45044;DHT22;30784;48.490;9.688;2024-01-07T03:58:32;6.10;63.10
45044;DHT22;30784;48.490;9.688;2024-01-07T04:00:59;6.10;63.10
45044;DHT22;30784;48.490;9.688;2024-01-07T04:03:25;6.10;63.10
45044;DHT22;30784;48.490;9.688;2024-01-07T04:05:51;6.10;63.20
45044;DHT22;30784;48.490;9.688;2024-01-07T04:08:16;6.10;63.20
45044;DHT22;30784;48.490;9.688;2024-01-07T04:10:42;6.10;63.20
45044;DHT22;30784;48.490;9.688;2024-01-07T04:13:08;6.10;63.20
45044;DHT22;30784;48.490;9.688;2024-01-07T04:15:33;6.10;63.30
45044;DHT22;30784;48.490;9.688;2024-01-07T04:18:03;6.10;63.20
45044;DHT22;30784;48.490;9.688;2024-01-07T04:20:29;6.10;63.30
45044;DHT22;30784;48.490;9.688;2024-01-07T04:22:55;6.10;63.20
45044;DHT22;30784;48.490;9.688;2024-01-07T04:25:21;6.10;63.20
45044;DHT22;30784;48.490;9.688;2024-01-07T04:27:47;6.10;63.20
45044;DHT22;30784;48.490;9.688;2024-01-07T04:30:12;6.10;63.30
45044;DHT22;30784;48.490;9.688;2024-01-07T04:32:38;6.10;63.30
45044;DHT22;30784;48.490;9.688;2024-01-07T04:35:04;6.10;63.30
45044;DHT22;30784;48.490;9.688;2024-01-07T04:37:29;6.10;63.30
45044;DHT22;30784;48.490;9.688;2024-01-07T04:39:55;6.10;63.20
45044;DHT22;30784;48.490;9.688;2024-01-07T04:42:20;6.10;63.20
45044;DHT22;30784;48.490;9.688;2024-01-07T04:44:46;6.10;63.20
45044;DHT22;30784;48.490;9.688;2024-01-07T04:47:31;6.10;63.30
45044;DHT22;30784;48.490;9.688;2024-01-07T04:49:59;6.00;63.10
45044;DHT22;30784;48.490;9.688;2024-01-07T04:52:26;6.10;63.20
45044;DHT22;30784;48.490;9.688;2024-01-07T04:54:52;6.10;63.30
45044;DHT22;30784;48.490;9.688;2024-01-07T04:57:18;6.10;63.30
45044;DHT22;30784;48.490;9.688;2024-01-07T04:59:45;6.10;63.30
45044;DHT22;30784;48.490;9.688;2024-01-07T05:02:11;6.00;63.30
45044;DHT22;30784;48.490;9.688;2024-01-07T05:04:36;6.00;63.30
45044;DHT22;30784;48.490;9.688;2024-01-07T05:07:02;6.10;63.30
45044;DHT22;30784;48.490;9.688;2024-01-07T05:09:28;6.00;63.30
45044;DHT22;30784;48.490;9.688;2024-01-07T05:11:53;6.00;63.30
45044;DHT22;30784;48.490;9.688;2024-01-07T05:14:19;6.00;63.20
45044;DHT22;30784;48.490;9.688;2024-01-07T05:16:44;6.00;63.20
45044;DHT22;30784;48.490;9.688;2024-01-07T05:19:10;6.00;63.30
45044;DHT22;30784;48.490;9.688;2024-01-07T05:21:35;6.00;63.30
45044;DHT22;30784;48.490;9.688;2024-01-07T05:24:01;6.00;63.30
45044;DHT22;30784;48.490;9.688;2024-01-07T05:26:27;6.00;63.30
45044;DHT22;30784;48.490;9.688;2024-01-07T05:28:52;6.00;63.30
45044;DHT22;30784;48.490;9.688;2024-01-07T05:31:18;5.90;63.30
45044;DHT22;30784;48.490;9.688;2024-01-07T05:33:44;5.90;63.30
45044;DHT22;30784;48.490;9.688;2024-01-07T05:36:11;5.90;63.20
45044;DHT22;30784;48.490;9.688;2024-01-07T05:38:37;5.90;63.30
45044;DHT22;30784;48.490;9.688;2024-01-07T05:41:02;5.90;63.40
45044;DHT22;30784;48.490;9.688;2024-01-07T05:43:28;5.90;63.50
45044;DHT22;30784;48.490;9.688;2024-01-07T05:45:53;5.90;63.40
45044;DHT22;30784;48.490;9.688;2024-01-07T05:48:21;5.90;63.40
45044;DHT22;30784;48.490;9.688;2024-01-07T05:50:47;5.90;63.50
45044;DHT22;30784;48.490;9.688;2024-01-07T05:53:13;5.90;63.90
45044;DHT22;30784;48.490;9.688;2024-01-07T05:55:38;5.90;63.50
45044;DHT22;30784;48.490;9.688;2024-01-07T05:58:04;5.90;63.60
45044;DHT22;30784;48.490;9.688;2024-01-07T06:00:30;5.90;63.70
45044;DHT22;30784;48.490;9.688;2024-01-07T06:02:56;5.80;63.60
45044;DHT22;30784;48.490;9.688;2024-01-07T06:05:21;5.80;63.60
45044;DHT22;30784;48.490;9.688;2024-01-07T06:07:47;5.70;63.60
45044;DHT22;30784;48.490;9.688;2024-01-07T06:10:12;5.80;63.70
45044;DHT22;30784;48.490;9.688;2024-01-07T06:12:38;5.80;63.80
45044;DHT22;30784;48.490;9.688;2024-01-07T06:15:04;5.70;63.80
45044;DHT22;30784;48.490;9.688;2024-01-07T06:17:30;5.80;63.90
45044;DHT22;30784;48.490;9.688;2024-01-07T06:19:56;5.80;63.90
45044;DHT22;30784;48.490;9.688;2024-01-07T06:22:22;5.80;63.90
45044;DHT22;30784;48.490;9.688;2024-01-07T06:24:47;5.80;63.90
45044;DHT22;30784;48.490;9.688;2024-01-07T06:27:13;5.80;63.90
45044;DHT22;30784;48.490;9.688;2024-01-07T06:29:39;5.80;63.80
45044;DHT22;30784;48.490;9.688;2024-01-07T06:32:04;5.80;63.90
45044;DHT22;30784;48.490;9.688;2024-01-07T06:34:30;5.80;63.90
45044;DHT22;30784;48.490;9.688;2024-01-07T06:36:56;5.80;63.90
45044;DHT22;30784;48.490;9.688;2024-01-07T06:39:21;5.80;64.00
45044;DHT22;30784;48.490;9.688;2024-01-07T06:41:47;5.80;64.00
45044;DHT22;30784;48.490;9.688;2024-01-07T06:44:12;5.80;64.00
45044;DHT22;30784;48.490;9.688;2024-01-07T06:46:38;5.70;63.90
45044;DHT22;30784;48.490;9.688;2024-01-07T06:49:03;5.80;64.00
45044;DHT22;30784;48.490;9.688;2024-01-07T06:51:29;5.80;64.00
45044;DHT22;30784;48.490;9.688;2024-01-07T06:53:54;5.80;64.00
45044;DHT22;30784;48.490;9.688;2024-01-07T06:56:20;5.80;64.00
45044;DHT22;30784;48.490;9.688;2024-01-07T06:58:45;5.80;64.00
45044;DHT22;30784;48.490;9.688;2024-01-07T07:01:11;5.80;64.00
45044;DHT22;30784;48.490;9.688;2024-01-07T07:03:37;5.90;64.00
45044;DHT22;30784;48.490;9.688;2024-01-07T07:06:02;5.80;63.90
45044;DHT22;30784;48.490;9.688;2024-01-07T07:08:28;5.80;63.90
45044;DHT22;30784;48.490;9.688;2024-01-07T07:10:53;5.80;64.00
45044;DHT22;30784;48.490;9.688;2024-01-07T07:13:19;5.80;64.00
45044;DHT22;30784;48.490;9.688;2024-01-07T07:15:44;5.80;64.00
45044;DHT22;30784;48.490;9.688;2024-01-07T07:18:10;5.80;64.00
45044;DHT22;30784;48.490;9.688;2024-01-07T07:20:36;5.80;64.00
45044;DHT22;30784;48.490;9.688;2024-01-07T07:23:01;5.70;63.90
45044;DHT22;30784;48.490;9.688;2024-01-07T07:25:27;5.70;63.90
45044;DHT22;30784;48.490;9.688;2024-01-07T07:27:52;5.80;64.00
45044;DHT22;30784;48.490;9.688;2024-01-07T07:30:18;5.70;63.90
45044;DHT22;30784;48.490;9.688;2024-01-07T07:32:43;5.70;63.90
45044;DHT22;30784;48.490;9.688;2024-01-07T07:35:09;5.70;63.90
45044;DHT22;30784;48.490;9.688;2024-01-07T07:37:35;5.70;64.00
45044;DHT22;30784;48.490;9.688;2024-01-07T07:40:01;5.70;64.00
45044;DHT22;30784;48.490;9.688;2024-01-07T07:42:26;5.70;64.10
45044;DHT22;30784;48.490;9.688;2024-01-07T07:44:52;5.70;64.10
45044;DHT22;30784;48.490;9.688;2024-01-07T07:47:18;5.70;64.10
45044;DHT22;30784;48.490;9.688;2024-01-07T07:49:43;5.70;64.10
45044;DHT22;30784;48.490;9.688;2024-01-07T07:52:09;5.70;64.10
45044;DHT22;30784;48.490;9.688;2024-01-07T07:54:37;5.70;64.10
45044;DHT22;30784;48.490;9.688;2024-01-07T07:57:03;5.60;64.10
45044;DHT22;30784;48.490;9.688;2024-01-07T07:59:29;5.70;64.20
45044;DHT22;30784;48.490;9.688;2024-01-07T08:01:54;5.70;64.10
45044;DHT22;30784;48.490;9.688;2024-01-07T08:04:20;5.70;64.10
45044;DHT22;30784;48.490;9.688;2024-01-07T08:06:46;5.70;64.10
45044;DHT22;30784;48.490;9.688;2024-01-07T08:09:11;5.70;64.10
45044;DHT22;30784;48.490;9.688;2024-01-07T08:11:37;5.70;64.10
45044;DHT22;30784;48.490;9.688;2024-01-07T08:14:02;5.70;64.00
45044;DHT22;30784;48.490;9.688;2024-01-07T08:16:28;5.70;64.00
45044;DHT22;30784;48.490;9.688;2024-01-07T08:18:53;5.70;64.00
45044;DHT22;30784;48.490;9.688;2024-01-07T08:21:22;5.70;64.10
45044;DHT22;30784;48.490;9.688;2024-01-07T08:23:48;5.70;64.10
45044;DHT22;30784;48.490;9.688;2024-01-07T08:26:20;5.70;64.20
45044;DHT22;30784;48.490;9.688;2024-01-07T08:28:46;5.70;64.20
45044;DHT22;30784;48.490;9.688;2024-01-07T08:31:12;5.70;64.30
45044;DHT22;30784;48.490;9.688;2024-01-07T08:33:37;5.70;64.30
45044;DHT22;30784;48.490;9.688;2024-01-07T08:36:03;5.70;64.30
45044;DHT22;30784;48.490;9.688;2024-01-07T08:38:30;5.70;64.30
45044;DHT22;30784;48.490;9.688;2024-01-07T08:40:55;5.70;64.20
45044;DHT22;30784;48.490;9.688;2024-01-07T08:43:21;5.60;64.20
45044;DHT22;30784;48.490;9.688;2024-01-07T08:45:46;5.70;64.20
45044;DHT22;30784;48.490;9.688;2024-01-07T08:48:12;5.60;64.10
45044;DHT22;30784;48.490;9.688;2024-01-07T08:50:38;5.70;64.00
45044;DHT22;30784;48.490;9.688;2024-01-07T08:53:04;5.60;63.90
45044;DHT22;30784;48.490;9.688;2024-01-07T08:55:30;5.60;63.80
45044;DHT22;30784;48.490;9.688;2024-01-07T08:57:56;5.60;63.70
45044;DHT22;30784;48.490;9.688;2024-01-07T09:00:22;5.60;63.60
45044;DHT22;30784;48.490;9.688;2024-01-07T09:02:51;5.60;63.60
45044;DHT22;30784;48.490;9.688;2024-01-07T09:05:17;5.50;63.30
45044;DHT22;30784;48.490;9.688;2024-01-07T09:07:43;5.50;63.30
45044;DHT22;30784;48.490;9.688;2024-01-07T09:10:09;5.50;63.20
45044;DHT22;30784;48.490;9.688;2024-01-07T09:12:39;5.50;63.20
45044;DHT22;30784;48.490;9.688;2024-01-07T09:15:05;5.50;63.30
45044;DHT22;30784;48.490;9.688;2024-01-07T09:17:37;5.40;63.20
45044;DHT22;30784;48.490;9.688;2024-01-07T09:20:07;5.40;63.40
45044;DHT22;30784;48.490;9.688;2024-01-07T09:22:34;5.40;63.30
45044;DHT22;30784;48.490;9.688;2024-01-07T09:25:04;5.40;63.20
45044;DHT22;30784;48.490;9.688;2024-01-07T09:27:30;5.40;63.20
45044;DHT22;30784;48.490;9.688;2024-01-07T09:29:55;5.40;63.20
45044;DHT22;30784;48.490;9.688;2024-01-07T09:32:21;5.40;63.10
45044;DHT22;30784;48.490;9.688;2024-01-07T09:34:47;5.30;63.10
45044;DHT22;30784;48.490;9.688;2024-01-07T09:37:12;5.30;63.10
45044;DHT22;30784;48.490;9.688;2024-01-07T09:39:41;5.30;63.10
45044;DHT22;30784;48.490;9.688;2024-01-07T09:42:13;5.30;63.10
45044;DHT22;30784;48.490;9.688;2024-01-07T09:44:41;5.30;63.10
45044;DHT22;30784;48.490;9.688;2024-01-07T09:47:10;5.30;63.20
45044;DHT22;30784;48.490;9.688;2024-01-07T09:49:38;5.30;63.30
45044;DHT22;30784;48.490;9.688;2024-01-07T09:52:04;5.30;63.30
45044;DHT22;30784;48.490;9.688;2024-01-07T09:54:30;5.30;63.20
45044;DHT22;30784;48.490;9.688;2024-01-07T09:57:01;5.30;63.30
45044;DHT22;30784;48.490;9.688;2024-01-07T09:59:28;5.30;63.30
45044;DHT22;30784;48.490;9.688;2024-01-07T10:01:55;5.30;63.50
45044;DHT22;30784;48.490;9.688;2024-01-07T10:04:21;5.30;63.60
45044;DHT22;30784;48.490;9.688;2024-01-07T10:06:47;5.30;63.60
45044;DHT22;30784;48.490;9.688;2024-01-07T10:09:15;5.30;63.60
45044;DHT22;30784;48.490;9.688;2024-01-07T10:11:41;5.30;63.60
45044;DHT22;30784;48.490;9.688;2024-01-07T10:14:06;5.30;63.60
45044;DHT22;30784;48.490;9.688;2024-01-07T10:16:32;5.30;63.70
45044;DHT22;30784;48.490;9.688;2024-01-07T10:18:58;5.30;63.70
45044;DHT22;30784;48.490;9.688;2024-01-07T10:21:24;5.30;63.70
45044;DHT22;30784;48.490;9.688;2024-01-07T10:23:50;5.20;63.60
45044;DHT22;30784;48.490;9.688;2024-01-07T10:26:17;5.20;63.70
45044;DHT22;30784;48.490;9.688;2024-01-07T10:28:43;5.20;63.80
45044;DHT22;30784;48.490;9.688;2024-01-07T10:31:09;5.20;63.80
45044;DHT22;30784;48.490;9.688;2024-01-07T10:33:34;5.20;63.90
45044;DHT22;30784;48.490;9.688;2024-01-07T10:36:06;5.20;63.90
45044;DHT22;30784;48.490;9.688;2024-01-07T10:38:35;5.20;64.40
45044;DHT22;30784;48.490;9.688;2024-01-07T10:41:01;5.20;63.90
45044;DHT22;30784;48.490;9.688;2024-01-07T10:43:29;5.20;63.70
45044;DHT22;30784;48.490;9.688;2024-01-07T10:45:55;5.20;63.70
45044;DHT22;30784;48.490;9.688;2024-01-07T10:48:23;5.10;63.70
45044;DHT22;30784;48.490;9.688;2024-01-07T10:50:55;5.20;63.80
45044;DHT22;30784;48.490;9.688;2024-01-07T10:53:23;5.10;63.70
45044;DHT22;30784;48.490;9.688;2024-01-07T10:55:54;5.10;63.60
45044;DHT22;30784;48.490;9.688;2024-01-07T10:58:24;5.10;63.50
45044;DHT22;30784;48.490;9.688;2024-01-07T11:00:50;5.10;63.60
45044;DHT22;30784;48.490;9.688;2024-01-07T11:03:28;5.00;63.60
45044;DHT22;30784;48.490;9.688;2024-01-07T11:05:59;5.00;63.60
45044;DHT22;30784;48.490;9.688;2024-01-07T11:08:38;5.00;63.70
45044;DHT22;30784;48.490;9.688;2024-01-07T11:11:25;5.00;63.60
45044;DHT22;30784;48.490;9.688;2024-01-07T11:13:51;4.90;63.60
45044;DHT22;30784;48.490;9.688;2024-01-07T11:19:05;4.90;63.70
45044;DHT22;30784;48.490;9.688;2024-01-07T11:21:31;4.90;63.70
45044;DHT22;30784;48.490;9.688;2024-01-07T11:23:56;4.90;63.70
45044;DHT22;30784;48.490;9.688;2024-01-07T11:26:22;4.80;63.70
45044;DHT22;30784;48.490;9.688;2024-01-07T11:28:57;4.80;63.80
45044;DHT22;30784;48.490;9.688;2024-01-07T11:34:10;4.80;63.80
45044;DHT22;30784;48.490;9.688;2024-01-07T11:36:36;4.80;63.70
45044;DHT22;30784;48.490;9.688;2024-01-07T11:39:03;4.80;63.50
45044;DHT22;30784;48.490;9.688;2024-01-07T11:41:33;4.80;63.50
45044;DHT22;30784;48.490;9.688;2024-01-07T11:44:00;4.80;63.60
45044;DHT22;30784;48.490;9.688;2024-01-07T11:46:29;4.80;63.60
45044;DHT22;30784;48.490;9.688;2024-01-07T11:48:58;4.70;63.40
45044;DHT22;30784;48.490;9.688;2024-01-07T11:51:33;4.70;63.40
45044;DHT22;30784;48.490;9.688;2024-01-07T11:54:01;4.70;63.30
45044;DHT22;30784;48.490;9.688;2024-01-07T11:56:28;4.70;63.30
45044;DHT22;30784;48.490;9.688;2024-01-07T11:58:54;4.70;63.20
45044;DHT22;30784;48.490;9.688;2024-01-07T12:01:21;4.70;63.20
45044;DHT22;30784;48.490;9.688;2024-01-07T12:03:47;4.70;63.10
45044;DHT22;30784;48.490;9.688;2024-01-07T12:06:13;4.60;63.00
45044;DHT22;30784;48.490;9.688;2024-01-07T12:08:40;4.60;63.00
45044;DHT22;30784;48.490;9.688;2024-01-07T12:11:06;4.60;63.00
45044;DHT22;30784;48.490;9.688;2024-01-07T12:13:33;4.60;63.00
45044;DHT22;30784;48.490;9.688;2024-01-07T12:15:59;4.50;63.10
45044;DHT22;30784;48.490;9.688;2024-01-07T12:18:25;4.50;63.00
45044;DHT22;30784;48.490;9.688;2024-01-07T12:20:58;4.50;63.10
45044;DHT22;30784;48.490;9.688;2024-01-07T12:23:24;4.50;63.00
45044;DHT22;30784;48.490;9.688;2024-01-07T12:25:51;4.50;63.10
45044;DHT22;30784;48.490;9.688;2024-01-07T12:28:19;4.50;63.00
45044;DHT22;30784;48.490;9.688;2024-01-07T12:30:47;4.50;63.00
45044;DHT22;30784;48.490;9.688;2024-01-07T12:33:19;4.50;63.00
45044;DHT22;30784;48.490;9.688;2024-01-07T12:35:46;4.50;63.00
45044;DHT22;30784;48.490;9.688;2024-01-07T12:38:12;4.50;63.00
45044;DHT22;30784;48.490;9.688;2024-01-07T12:40:38;4.50;62.90
45044;DHT22;30784;48.490;9.688;2024-01-07T12:43:04;4.40;62.90
45044;DHT22;30784;48.490;9.688;2024-01-07T12:45:32;4.40;62.80
45044;DHT22;30784;48.490;9.688;2024-01-07T12:47:58;4.40;62.90
45044;DHT22;30784;48.490;9.688;2024-01-07T12:50:27;4.40;62.90
45044;DHT22;30784;48.490;9.688;2024-01-07T12:52:55;4.40;62.90
45044;DHT22;30784;48.490;9.688;2024-01-07T12:55:22;4.40;62.80
45044;DHT22;30784;48.490;9.688;2024-01-07T12:57:47;4.30;62.80
45044;DHT22;30784;48.490;9.688;2024-01-07T13:00:13;4.30;63.00
45044;DHT22;30784;48.490;9.688;2024-01-07T13:02:41;4.40;63.20
45044;DHT22;30784;48.490;9.688;2024-01-07T13:05:06;4.30;63.00
45044;DHT22;30784;48.490;9.688;2024-01-07T13:07:32;4.30;63.30
45044;DHT22;30784;48.490;9.688;2024-01-07T13:09:58;4.30;62.80
45044;DHT22;30784;48.490;9.688;2024-01-07T13:12:24;4.30;63.00
45044;DHT22;30784;48.490;9.688;2024-01-07T13:14:50;4.30;63.00
45044;DHT22;30784;48.490;9.688;2024-01-07T13:17:15;4.30;62.90
45044;DHT22;30784;48.490;9.688;2024-01-07T13:19:41;4.30;62.90
45044;DHT22;30784;48.490;9.688;2024-01-07T13:22:07;4.30;63.00
45044;DHT22;30784;48.490;9.688;2024-01-07T13:24:33;4.30;62.90
45044;DHT22;30784;48.490;9.688;2024-01-07T13:26:58;4.30;62.70
45044;DHT22;30784;48.490;9.688;2024-01-07T13:29:24;4.30;62.70
45044;DHT22;30784;48.490;9.688;2024-01-07T13:31:50;4.30;62.70
45044;DHT22;30784;48.490;9.688;2024-01-07T13:34:16;4.30;62.60
45044;DHT22;30784;48.490;9.688;2024-01-07T13:36:43;4.30;62.60
45044;DHT22;30784;48.490;9.688;2024-01-07T13:39:09;4.30;62.60
45044;DHT22;30784;48.490;9.688;2024-01-07T13:41:35;4.30;62.70
45044;DHT22;30784;48.490;9.688;2024-01-07T13:44:01;4.30;62.70
45044;DHT22;30784;48.490;9.688;2024-01-07T13:46:28;4.30;62.60
45044;DHT22;30784;48.490;9.688;2024-01-07T13:48:54;4.30;62.60
45044;DHT22;30784;48.490;9.688;2024-01-07T13:51:19;4.30;62.20
45044;DHT22;30784;48.490;9.688;2024-01-07T13:53:45;4.20;62.10
45044;DHT22;30784;48.490;9.688;2024-01-07T13:56:13;4.20;62.10
45044;DHT22;30784;48.490;9.688;2024-01-07T13:58:39;4.20;62.00
45044;DHT22;30784;48.490;9.688;2024-01-07T14:01:04;4.20;62.20
45044;DHT22;30784;48.490;9.688;2024-01-07T14:03:33;4.20;62.10
45044;DHT22;30784;48.490;9.688;2024-01-07T14:05:59;4.10;62.50
45044;DHT22;30784;48.490;9.688;2024-01-07T14:08:26;4.10;62.10
45044;DHT22;30784;48.490;9.688;2024-01-07T14:10:52;4.10;62.00
45044;DHT22;30784;48.490;9.688;2024-01-07T14:13:17;4.10;62.20
45044;DHT22;30784;48.490;9.688;2024-01-07T14:15:43;4.10;62.20
45044;DHT22;30784;48.490;9.688;2024-01-07T14:18:09;4.10;62.20
45044;DHT22;30784;48.490;9.688;2024-01-07T14:20:35;4.00;62.20
45044;DHT22;30784;48.490;9.688;2024-01-07T14:23:01;4.00;62.10
45044;DHT22;30784;48.490;9.688;2024-01-07T14:25:27;4.10;62.00
45044;DHT22;30784;48.490;9.688;2024-01-07T14:27:52;4.10;62.10
45044;DHT22;30784;48.490;9.688;2024-01-07T14:30:18;4.00;62.20
45044;DHT22;30784;48.490;9.688;2024-01-07T14:32:43;4.00;62.10
45044;DHT22;30784;48.490;9.688;2024-01-07T14:35:11;4.00;62.10
45044;DHT22;30784;48.490;9.688;2024-01-07T14:37:37;4.00;62.10
45044;DHT22;30784;48.490;9.688;2024-01-07T14:40:03;4.00;62.00
45044;DHT22;30784;48.490;9.688;2024-01-07T14:42:29;4.00;61.90
45044;DHT22;30784;48.490;9.688;2024-01-07T14:44:55;4.00;62.10
45044;DHT22;30784;48.490;9.688;2024-01-07T14:47:21;4.00;61.90
45044;DHT22;30784;48.490;9.688;2024-01-07T14:49:47;4.00;61.80
45044;DHT22;30784;48.490;9.688;2024-01-07T14:52:13;4.00;61.70
45044;DHT22;30784;48.490;9.688;2024-01-07T14:54:38;4.00;61.80
45044;DHT22;30784;48.490;9.688;2024-01-07T14:57:04;4.00;61.60
45044;DHT22;30784;48.490;9.688;2024-01-07T14:59:30;3.90;61.60
45044;DHT22;30784;48.490;9.688;2024-01-07T15:01:55;3.90;61.80
45044;DHT22;30784;48.490;9.688;2024-01-07T15:04:21;3.90;61.90
45044;DHT22;30784;48.490;9.688;2024-01-07T15:06:46;3.90;61.90
45044;DHT22;30784;48.490;9.688;2024-01-07T15:09:14;3.90;61.80
45044;DHT22;30784;48.490;9.688;2024-01-07T15:11:40;3.80;61.60
45044;DHT22;30784;48.490;9.688;2024-01-07T15:14:12;3.80;61.70
45044;DHT22;30784;48.490;9.688;2024-01-07T15:16:37;3.80;61.80
45044;DHT22;30784;48.490;9.688;2024-01-07T15:19:03;3.80;62.00
45044;DHT22;30784;48.490;9.688;2024-01-07T15:21:29;3.80;61.90
45044;DHT22;30784;48.490;9.688;2024-01-07T15:23:54;3.80;61.80
45044;DHT22;30784;48.490;9.688;2024-01-07T15:26:20;3.80;61.80
45044;DHT22;30784;48.490;9.688;2024-01-07T15:28:46;3.80;61.80
45044;DHT22;30784;48.490;9.688;2024-01-07T15:31:11;3.80;61.80
45044;DHT22;30784;48.490;9.688;2024-01-07T15:33:37;3.80;61.80
45044;DHT22;30784;48.490;9.688;2024-01-07T15:36:03;3.80;61.80
45044;DHT22;30784;48.490;9.688;2024-01-07T15:38:29;3.80;61.80
45044;DHT22;30784;48.490;9.688;2024-01-07T15:40:54;3.80;61.70
45044;DHT22;30784;48.490;9.688;2024-01-07T15:43:20;3.80;61.40